createdAt,value
2019-04-28T00:00:42.050Z,32.60
2019-04-28T00:03:10.674Z,32.60
2019-04-28T00:05:37.052Z,32.40
2019-04-28T00:08:03.661Z,32.50
2019-04-28T00:10:32.062Z,32.60
2019-04-28T00:12:58.820Z,32.20
2019-04-28T00:15:25.446Z,32.20
2019-04-28T00:17:52.498Z,32.40
2019-04-28T00:20:21.261Z,32.20
2019-04-28T00:22:47.463Z,31.80
2019-04-28T00:25:14.269Z,32.10
2019-04-28T00:27:41.525Z,32.10
2019-04-28T00:30:08.188Z,32.00
2019-04-28T00:32:34.876Z,32.20
2019-04-28T00:35:02.317Z,32.20
2019-04-28T00:37:29.183Z,32.20
2019-04-28T00:39:55.866Z,32.30
2019-04-28T00:42:22.832Z,32.30
2019-04-28T00:44:51.430Z,32.70
2019-04-28T00:47:17.903Z,32.30
2019-04-28T00:49:44.528Z,32.20
2019-04-28T00:52:11.223Z,32.50
2019-04-28T00:54:37.963Z,32.20
2019-04-28T00:57:04.572Z,32.50
2019-04-28T00:59:31.610Z,32.60
2019-04-28T01:01:58.347Z,32.40
2019-04-28T01:04:25.006Z,32.60
2019-04-28T01:06:52.101Z,32.50
2019-04-28T01:09:18.882Z,32.40
2019-04-28T01:11:45.521Z,32.50
2019-04-28T01:14:12.196Z,32.40
2019-04-28T01:16:40.063Z,32.30
2019-04-28T01:19:06.838Z,32.40
2019-04-28T01:21:33.435Z,32.30
2019-04-28T01:24:00.180Z,32.50
2019-04-28T01:26:26.777Z,32.60
2019-04-28T01:28:53.399Z,32.70
2019-04-28T01:31:21.282Z,32.70
2019-04-28T01:33:47.942Z,32.80
2019-04-28T01:36:14.583Z,32.70
2019-04-28T01:38:41.268Z,32.70
2019-04-28T01:41:09.721Z,32.80
2019-04-28T01:43:36.573Z,32.80
2019-04-28T01:46:03.358Z,32.80
2019-04-28T01:48:31.506Z,32.70
2019-04-28T01:50:59.796Z,32.70
2019-04-28T01:53:26.605Z,32.80
2019-04-28T01:55:53.352Z,32.70
2019-04-28T01:58:20.411Z,32.60
2019-04-28T02:00:47.776Z,32.80
2019-04-28T02:03:14.498Z,32.70
2019-04-28T02:05:41.243Z,32.50
2019-04-28T02:08:08.056Z,32.60
2019-04-28T02:10:34.899Z,32.70
2019-04-28T02:13:01.739Z,32.50
2019-04-28T02:15:30.210Z,32.60
2019-04-28T02:17:57.110Z,32.50
2019-04-28T02:20:23.905Z,32.50
2019-04-28T02:22:50.849Z,32.50
2019-04-28T02:25:17.615Z,32.40
2019-04-28T02:27:44.450Z,32.30
2019-04-28T02:30:11.879Z,32.40
2019-04-28T02:32:40.757Z,32.30
2019-04-28T02:35:07.311Z,32.40
2019-04-28T02:37:34.967Z,32.30
2019-04-28T02:40:03.449Z,33.10
2019-04-28T02:42:30.983Z,32.30
2019-04-28T02:45:00.431Z,32.50
2019-04-28T02:47:26.641Z,32.40
2019-04-28T02:49:53.378Z,32.40
2019-04-28T02:52:20.636Z,32.40
2019-04-28T02:54:50.495Z,32.30
2019-04-28T02:57:16.058Z,32.80
2019-04-28T02:59:44.668Z,32.30
2019-04-28T03:02:11.289Z,32.20
2019-04-28T03:04:40.703Z,32.20
2019-04-28T03:07:06.593Z,32.30
2019-04-28T03:09:33.345Z,32.40
2019-04-28T03:12:01.398Z,32.40
2019-04-28T03:14:30.490Z,32.50
2019-04-28T03:16:57.243Z,33.00
2019-04-28T03:19:24.075Z,32.80
2019-04-28T03:21:51.179Z,33.10
2019-04-28T03:24:21.095Z,33.10
2019-04-28T03:26:46.653Z,33.30
2019-04-28T03:29:13.448Z,33.50
2019-04-28T03:32:04.198Z,33.40
2019-04-28T03:34:12.506Z,33.50
2019-04-28T03:36:37.118Z,33.70
2019-04-28T03:39:04.122Z,33.50
2019-04-28T03:41:31.222Z,33.10
2019-04-28T03:44:00.462Z,33.00
2019-04-28T03:46:26.726Z,33.10
2019-04-28T03:48:53.550Z,33.20
2019-04-28T03:51:21.228Z,33.30
2019-04-28T03:53:50.562Z,32.90
2019-04-28T03:56:16.543Z,32.90
2019-04-28T03:58:43.384Z,32.70
2019-04-28T04:01:10.960Z,32.60
2019-04-28T04:03:37.883Z,32.60
2019-04-28T04:06:04.743Z,32.90
2019-04-28T04:08:31.561Z,33.40
2019-04-28T04:11:00.202Z,32.80
2019-04-28T04:13:26.915Z,33.00
2019-04-28T04:15:54.767Z,32.90
2019-04-28T04:18:21.760Z,32.60
2019-04-28T04:20:50.985Z,32.70
2019-04-28T04:23:17.025Z,32.80
2019-04-28T04:25:43.858Z,32.80
2019-04-28T04:28:11.066Z,32.80
2019-04-28T04:30:40.585Z,32.80
2019-04-28T04:33:06.232Z,32.70
2019-04-28T04:35:33.133Z,32.80
2019-04-28T04:38:00.582Z,33.10
2019-04-28T04:40:27.455Z,32.90
2019-04-28T04:42:54.217Z,32.80
2019-04-28T04:45:21.051Z,32.60
2019-04-28T04:47:50.334Z,32.60
2019-04-28T04:50:16.321Z,32.50
2019-04-28T04:52:43.210Z,32.50
2019-04-28T04:55:11.087Z,32.60
2019-04-28T04:57:38.024Z,32.60
2019-04-28T05:00:04.763Z,32.40
2019-04-28T05:02:33.079Z,32.30
2019-04-28T05:05:00.510Z,32.20
2019-04-28T05:07:27.336Z,32.20
2019-04-28T05:09:54.073Z,32.20
2019-04-28T05:12:20.916Z,32.00
2019-04-28T05:14:49.376Z,32.60
2019-04-28T05:17:16.255Z,32.50
2019-04-28T05:19:43.024Z,32.20
2019-04-28T05:22:10.222Z,31.90
2019-04-28T05:24:37.069Z,32.00
2019-04-28T05:27:03.868Z,31.70
2019-04-28T05:29:30.831Z,32.10
2019-04-28T05:32:01.825Z,31.90
2019-04-28T05:34:26.737Z,31.70
2019-04-28T05:36:54.097Z,31.80
2019-04-28T05:39:20.825Z,31.90
2019-04-28T05:41:47.625Z,31.80
2019-04-28T05:44:14.667Z,31.60
2019-04-28T05:46:41.411Z,31.70
2019-04-28T05:49:10.173Z,31.60
2019-04-28T05:51:36.829Z,31.50
2019-04-28T05:54:03.671Z,31.60
2019-04-28T05:56:31.165Z,31.70
2019-04-28T05:58:57.976Z,31.70
2019-04-28T06:01:24.809Z,31.50
2019-04-28T06:03:51.653Z,31.20
2019-04-28T06:06:20.359Z,31.40
2019-04-28T06:08:46.875Z,31.70
2019-04-28T06:11:13.668Z,31.60
2019-04-28T06:13:40.410Z,31.50
2019-04-28T06:16:07.296Z,31.40
2019-04-28T06:18:34.137Z,31.40
2019-04-28T06:21:00.976Z,31.30
2019-04-28T06:23:27.824Z,30.90
2019-04-28T06:25:54.671Z,30.80
2019-04-28T06:28:21.389Z,31.40
2019-04-28T06:30:48.434Z,31.10
2019-04-28T06:33:15.291Z,30.70
2019-04-28T06:35:42.132Z,30.50
2019-04-28T06:38:08.988Z,30.60
2019-04-28T06:40:35.869Z,31.40
2019-04-28T06:43:02.663Z,31.00
2019-04-28T06:45:29.505Z,31.00
2019-04-28T06:47:56.351Z,30.90
2019-04-28T06:50:23.180Z,31.10
2019-04-28T06:52:50.034Z,30.80
2019-04-28T06:55:16.888Z,31.20
2019-04-28T06:57:43.720Z,31.20
2019-04-28T07:00:10.552Z,31.10
2019-04-28T07:02:37.396Z,30.90
2019-04-28T07:05:04.244Z,31.00
2019-04-28T07:07:31.075Z,30.00
2019-04-28T07:09:57.913Z,30.80
2019-04-28T07:12:24.776Z,30.80
2019-04-28T07:14:51.609Z,31.40
2019-04-28T07:17:18.497Z,31.40
2019-04-28T07:19:45.280Z,31.40
2019-04-28T07:22:12.827Z,30.90
2019-04-28T07:24:39.650Z,31.70
2019-04-28T07:27:06.390Z,31.60
2019-04-28T07:29:33.158Z,31.50
2019-04-28T07:32:00.023Z,31.80
2019-04-28T07:34:26.852Z,31.40
2019-04-28T07:36:53.686Z,31.80
2019-04-28T07:39:20.740Z,31.40
2019-04-28T07:41:47.472Z,32.00
2019-04-28T07:44:14.363Z,32.40
2019-04-28T07:46:41.160Z,31.90
2019-04-28T07:49:08.005Z,31.90
2019-04-28T07:51:34.844Z,31.80
2019-04-28T07:54:04.643Z,31.90
2019-04-28T07:56:30.068Z,31.80
2019-04-28T07:58:56.901Z,31.80
2019-04-28T08:01:23.745Z,31.50
2019-04-28T08:03:50.587Z,32.00
2019-04-28T08:06:17.427Z,31.90
2019-04-28T08:08:44.594Z,31.40
2019-04-28T08:11:11.415Z,32.20
2019-04-28T08:13:38.280Z,32.00
2019-04-28T08:16:05.305Z,32.10
2019-04-28T08:18:32.153Z,31.80
2019-04-28T08:20:58.983Z,32.10
2019-04-28T08:23:25.824Z,31.10
2019-04-28T08:25:52.599Z,31.30
2019-04-28T08:28:19.391Z,31.70
2019-04-28T08:30:46.190Z,31.70
2019-04-28T08:33:12.986Z,32.00
2019-04-28T08:35:39.853Z,31.80
2019-04-28T08:38:06.677Z,31.70
2019-04-28T08:40:33.526Z,31.20
2019-04-28T08:43:00.457Z,31.50
2019-04-28T08:45:27.708Z,31.80
2019-04-28T08:47:54.457Z,31.90
2019-04-28T08:50:21.241Z,32.10
2019-04-28T08:52:50.505Z,31.30
2019-04-28T08:55:17.536Z,31.50
2019-04-28T08:57:44.266Z,31.50
2019-04-28T09:00:11.283Z,30.90
2019-04-28T09:02:38.283Z,30.80
2019-04-28T09:05:05.030Z,30.80
2019-04-28T09:07:33.114Z,31.20
2019-04-28T09:10:01.650Z,31.00
2019-04-28T09:12:28.707Z,31.40
2019-04-28T09:14:55.504Z,31.70
2019-04-28T09:17:22.253Z,31.60
2019-04-28T09:19:48.988Z,31.70
2019-04-28T09:22:15.882Z,31.60
2019-04-28T09:24:42.706Z,31.50
2019-04-28T09:27:09.546Z,31.70
2019-04-28T09:29:36.395Z,31.80
2019-04-28T09:32:03.228Z,31.40
2019-04-28T09:34:30.091Z,32.00
2019-04-28T09:36:57.737Z,32.30
2019-04-28T09:39:24.524Z,32.20
2019-04-28T09:41:51.320Z,31.50
2019-04-28T09:44:18.266Z,31.70
2019-04-28T09:46:45.005Z,31.80
2019-04-28T09:49:11.952Z,31.70
2019-04-28T09:51:38.887Z,31.40
2019-04-28T09:54:05.727Z,31.60
2019-04-28T09:56:32.480Z,32.20
2019-04-28T09:58:59.276Z,31.70
2019-04-28T10:01:26.053Z,32.20
2019-04-28T10:03:52.905Z,32.50
2019-04-28T10:06:19.729Z,31.70
2019-04-28T10:08:46.469Z,31.60
2019-04-28T10:11:13.314Z,31.60
2019-04-28T10:13:40.154Z,31.70
2019-04-28T10:16:06.996Z,32.10
2019-04-28T10:18:33.854Z,31.80
2019-04-28T10:21:00.679Z,31.90
2019-04-28T10:23:27.525Z,31.60
2019-04-28T10:25:54.623Z,32.30
2019-04-28T10:28:21.414Z,31.60
2019-04-28T10:30:48.170Z,31.50
2019-04-28T10:33:14.903Z,31.50
2019-04-28T10:35:41.712Z,31.00
2019-04-28T10:38:08.467Z,31.60
2019-04-28T10:40:35.224Z,31.40
2019-04-28T10:43:02.021Z,31.60
2019-04-28T10:45:31.296Z,31.40
2019-04-28T10:47:58.407Z,31.50
2019-04-28T10:50:25.428Z,32.00
2019-04-28T10:52:52.181Z,31.60
2019-04-28T10:55:18.920Z,31.90
2019-04-28T10:57:45.748Z,31.90
2019-04-28T11:00:12.527Z,31.50
2019-04-28T11:02:39.243Z,31.10
2019-04-28T11:05:08.466Z,31.50
2019-04-28T11:07:34.434Z,31.20
2019-04-28T11:10:01.185Z,31.00
2019-04-28T11:12:28.154Z,31.70
2019-04-28T11:14:55.037Z,31.50
2019-04-28T11:17:21.762Z,31.00
2019-04-28T11:19:48.559Z,31.30
2019-04-28T11:22:15.287Z,31.50
2019-04-28T11:24:42.009Z,31.20
2019-04-28T11:27:08.798Z,31.50
2019-04-28T11:29:35.522Z,31.10
2019-04-28T11:32:02.246Z,30.50
2019-04-28T11:34:29.253Z,30.90
2019-04-28T11:36:56.052Z,31.10
2019-04-28T11:39:22.720Z,31.10
2019-04-28T11:41:49.508Z,30.70
2019-04-28T11:44:16.249Z,30.60
2019-04-28T11:46:42.957Z,30.60
2019-04-28T11:49:10.050Z,31.30
2019-04-28T11:51:39.094Z,31.50
2019-04-28T11:54:05.881Z,30.20
2019-04-28T11:56:41.238Z,30.40
2019-04-28T11:59:01.058Z,31.10
2019-04-28T12:01:27.887Z,30.90
2019-04-28T12:03:54.670Z,30.50
2019-04-28T12:06:21.383Z,30.50
2019-04-28T12:08:48.125Z,31.10
2019-04-28T12:11:14.954Z,31.20
2019-04-28T12:13:41.655Z,31.70
2019-04-28T12:16:08.399Z,31.00
2019-04-28T12:18:35.235Z,31.00
2019-04-28T12:21:01.912Z,31.60
2019-04-28T12:23:28.636Z,30.90
2019-04-28T12:25:55.437Z,31.20
2019-04-28T12:28:22.174Z,31.40
2019-04-28T12:30:48.905Z,31.70
2019-04-28T12:33:15.769Z,31.60
2019-04-28T12:35:48.106Z,30.60
2019-04-28T12:38:10.892Z,31.70
2019-04-28T12:40:37.684Z,31.20
2019-04-28T12:43:04.405Z,31.20
2019-04-28T12:45:35.286Z,31.30
2019-04-28T12:47:59.562Z,30.90
2019-04-28T12:50:26.300Z,31.10
2019-04-28T12:52:53.017Z,31.50
2019-04-28T12:55:19.805Z,31.50
2019-04-28T12:57:46.529Z,31.20
2019-04-28T13:00:13.271Z,31.80
2019-04-28T13:02:40.066Z,31.50
2019-04-28T13:05:06.802Z,31.60
2019-04-28T13:07:33.531Z,31.30
2019-04-28T13:10:00.328Z,30.80
2019-04-28T13:12:27.063Z,31.20
2019-04-28T13:14:53.791Z,30.60
2019-04-28T13:17:20.591Z,31.60
2019-04-28T13:19:47.307Z,31.20
2019-04-28T13:22:14.203Z,31.10
2019-04-28T13:24:41.159Z,31.30
2019-04-28T13:27:10.193Z,31.90
2019-04-28T13:29:36.245Z,31.00
2019-04-28T13:32:03.030Z,30.90
2019-04-28T13:34:29.775Z,31.00
2019-04-28T13:36:56.513Z,31.50
2019-04-28T13:39:23.323Z,30.80
2019-04-28T13:41:50.043Z,31.30
2019-04-28T13:44:16.774Z,31.60
2019-04-28T13:46:43.569Z,31.00
2019-04-28T13:49:10.301Z,31.70
2019-04-28T13:51:37.051Z,31.10
2019-04-28T13:54:03.901Z,31.50
2019-04-28T13:56:30.641Z,31.00
2019-04-28T13:58:57.370Z,31.70
2019-04-28T14:01:24.232Z,31.30
2019-04-28T14:03:50.993Z,31.10
2019-04-28T14:06:27.534Z,31.20
2019-04-28T14:08:46.134Z,31.60
2019-04-28T14:11:12.857Z,31.40
2019-04-28T14:13:39.586Z,31.10
2019-04-28T14:16:06.660Z,31.30
2019-04-28T14:18:33.397Z,31.50
2019-04-28T14:21:00.123Z,31.80
2019-04-28T14:23:26.919Z,31.60
2019-04-28T14:25:53.700Z,31.70
2019-04-28T14:28:20.387Z,31.00
2019-04-28T14:30:47.161Z,31.20
2019-04-28T14:33:16.480Z,31.40
2019-04-28T14:35:42.333Z,31.20
2019-04-28T14:38:09.195Z,30.80
2019-04-28T14:40:36.255Z,31.00
2019-04-28T14:43:03.447Z,30.60
2019-04-28T14:45:30.315Z,30.90
2019-04-28T14:47:57.337Z,31.10
2019-04-28T14:50:24.143Z,31.30
2019-04-28T14:52:51.269Z,31.00
2019-04-28T14:55:18.237Z,31.30
2019-04-28T14:57:44.992Z,31.10
2019-04-28T15:00:12.509Z,31.30
2019-04-28T15:02:39.242Z,30.80
2019-04-28T15:05:05.968Z,30.90
2019-04-28T15:07:33.101Z,31.00
2019-04-28T15:09:59.784Z,31.20
2019-04-28T15:12:26.553Z,31.00
2019-04-28T15:14:53.304Z,30.70
2019-04-28T15:17:20.061Z,31.00
2019-04-28T15:19:46.766Z,31.10
2019-04-28T15:22:13.555Z,30.60
2019-04-28T15:24:40.272Z,30.90
2019-04-28T15:27:07.010Z,30.70
2019-04-28T15:29:33.987Z,31.20
2019-04-28T15:32:00.694Z,30.40
2019-04-28T15:34:27.418Z,31.20
2019-04-28T15:36:54.196Z,31.20
2019-04-28T15:39:20.921Z,31.20
2019-04-28T15:41:47.645Z,31.60
2019-04-28T15:44:14.440Z,31.60
2019-04-28T15:46:41.169Z,31.30
2019-04-28T15:49:07.906Z,31.10
2019-04-28T15:51:34.762Z,31.30
2019-04-28T15:54:01.488Z,31.20
2019-04-28T15:56:28.223Z,31.20
2019-04-28T15:58:56.702Z,30.60
2019-04-28T16:01:23.395Z,31.20
2019-04-28T16:03:50.141Z,31.40
2019-04-28T16:06:16.942Z,31.50
2019-04-28T16:08:43.667Z,31.20
2019-04-28T16:11:10.415Z,31.60
2019-04-28T16:13:37.192Z,31.60
2019-04-28T16:16:03.912Z,31.50
2019-04-28T16:18:30.649Z,31.70
2019-04-28T16:20:57.438Z,31.60
2019-04-28T16:23:24.168Z,31.30
2019-04-28T16:25:50.892Z,31.50
2019-04-28T16:28:17.686Z,31.50
2019-04-28T16:30:44.422Z,31.60
2019-04-28T16:33:11.156Z,31.90
2019-04-28T16:35:37.997Z,31.90
2019-04-28T16:38:04.694Z,32.10
2019-04-28T16:40:31.691Z,32.10
2019-04-28T16:42:58.483Z,32.20
2019-04-28T16:45:25.223Z,32.30
2019-04-28T16:47:51.930Z,32.30
2019-04-28T16:50:18.941Z,32.00
2019-04-28T16:52:45.669Z,31.80
2019-04-28T16:55:12.401Z,31.70
2019-04-28T16:57:39.190Z,31.90
2019-04-28T17:00:05.910Z,32.20
2019-04-28T17:02:32.641Z,32.10
2019-04-28T17:04:59.421Z,31.70
2019-04-28T17:07:26.150Z,31.90
2019-04-28T17:09:52.868Z,32.10
2019-04-28T17:12:19.650Z,31.80
2019-04-28T17:14:46.379Z,32.10
2019-04-28T17:17:13.231Z,31.90
2019-04-28T17:19:40.027Z,31.70
2019-04-28T17:22:06.769Z,31.80
2019-04-28T17:24:33.512Z,32.10
2019-04-28T17:27:00.294Z,32.00
2019-04-28T17:29:27.052Z,32.00
2019-04-28T17:31:53.772Z,32.10
2019-04-28T17:34:20.560Z,31.90
2019-04-28T17:36:47.287Z,32.20
2019-04-28T17:39:14.039Z,32.50
2019-04-28T17:41:41.035Z,32.30
2019-04-28T17:44:07.767Z,32.10
2019-04-28T17:46:34.479Z,32.20
2019-04-28T17:49:01.262Z,32.10
2019-04-28T17:51:27.999Z,32.80
2019-04-28T17:53:54.741Z,32.60
2019-04-28T17:56:22.110Z,32.30
2019-04-28T17:58:48.943Z,32.80
2019-04-28T18:01:15.647Z,32.60
2019-04-28T18:03:42.676Z,32.30
2019-04-28T18:06:17.584Z,32.30
2019-04-28T18:08:37.800Z,32.30
2019-04-28T18:11:04.571Z,32.60
2019-04-28T18:13:31.303Z,32.60
2019-04-28T18:15:58.085Z,32.00
2019-04-28T18:18:24.876Z,32.50
2019-04-28T18:20:51.612Z,32.80
2019-04-28T18:23:18.320Z,32.60
2019-04-28T18:25:45.121Z,32.60
2019-04-28T18:28:11.851Z,32.70
2019-04-28T18:30:38.592Z,32.60
2019-04-28T18:33:05.388Z,32.40
2019-04-28T18:35:32.107Z,32.40
2019-04-28T18:37:58.952Z,32.40
2019-04-28T18:40:25.825Z,32.70
2019-04-28T18:42:52.591Z,32.60
2019-04-28T18:45:19.376Z,33.30
2019-04-28T18:47:46.423Z,32.60
2019-04-28T18:50:13.179Z,32.90
2019-04-28T18:52:39.905Z,32.60
2019-04-28T18:55:06.705Z,32.80
2019-04-28T18:57:33.481Z,32.80
2019-04-28T19:00:00.326Z,32.90
2019-04-28T19:02:27.476Z,33.30
2019-04-28T19:04:54.319Z,33.10
2019-04-28T19:07:21.162Z,33.10
2019-04-28T19:09:47.997Z,33.00
2019-04-28T19:12:14.839Z,32.90
2019-04-28T19:14:41.678Z,32.80
2019-04-28T19:17:08.520Z,33.00
2019-04-28T19:19:35.362Z,32.80
2019-04-28T19:22:02.208Z,32.80
2019-04-28T19:24:29.205Z,33.20
2019-04-28T19:26:55.990Z,33.10
2019-04-28T19:29:23.035Z,33.30
2019-04-28T19:31:49.851Z,33.70
2019-04-28T19:34:16.858Z,33.50
2019-04-28T19:36:43.591Z,33.60
2019-04-28T19:39:10.396Z,33.20
2019-04-28T19:41:37.121Z,33.30
2019-04-28T19:44:03.852Z,33.00
2019-04-28T19:46:30.667Z,32.80
2019-04-28T19:48:57.387Z,32.60
2019-04-28T19:51:31.699Z,32.90
2019-04-28T19:53:52.555Z,32.70
2019-04-28T19:56:19.318Z,32.80
2019-04-28T19:58:46.059Z,32.90
2019-04-28T20:01:12.895Z,32.80
2019-04-28T20:03:39.614Z,33.10
2019-04-28T20:06:07.330Z,33.30
2019-04-28T20:08:34.295Z,32.90
2019-04-28T20:11:01.034Z,32.80
2019-04-28T20:13:27.741Z,32.90
2019-04-28T20:15:54.539Z,33.10
2019-04-28T20:18:22.440Z,32.90
2019-04-28T20:20:49.260Z,33.20
2019-04-28T20:23:16.047Z,33.00
2019-04-28T20:25:42.772Z,32.80
2019-04-28T20:28:09.670Z,32.80
2019-04-28T20:30:36.466Z,32.70
2019-04-28T20:33:07.431Z,32.40
2019-04-28T20:35:31.622Z,32.70
2019-04-28T20:37:58.400Z,32.10
2019-04-28T20:40:25.134Z,32.70
2019-04-28T20:42:51.888Z,33.00
2019-04-28T20:45:18.730Z,33.20
2019-04-28T20:47:45.472Z,32.70
2019-04-28T20:50:12.180Z,33.00
2019-04-28T20:52:38.963Z,33.00
2019-04-28T20:55:05.701Z,33.20
2019-04-28T20:57:32.420Z,32.90
2019-04-28T20:59:59.216Z,33.20
2019-04-28T21:02:26.269Z,33.10
2019-04-28T21:04:52.953Z,32.70
2019-04-28T21:07:19.949Z,33.30
2019-04-28T21:09:46.675Z,33.40
2019-04-28T21:12:13.408Z,33.70
2019-04-28T21:14:40.199Z,33.90
2019-04-28T21:17:06.926Z,34.10
2019-04-28T21:19:33.664Z,34.10
2019-04-28T21:22:00.632Z,33.80
2019-04-28T21:24:27.356Z,34.10
2019-04-28T21:26:54.086Z,33.40
2019-04-28T21:29:20.897Z,33.40
2019-04-28T21:31:47.622Z,33.20
2019-04-28T21:34:14.334Z,33.10
2019-04-28T21:36:41.109Z,32.70
2019-04-28T21:39:07.829Z,32.70
2019-04-28T21:41:34.557Z,33.20
2019-04-28T21:44:01.335Z,32.70
2019-04-28T21:46:28.091Z,33.20
2019-04-28T21:48:54.831Z,33.30
2019-04-28T21:51:21.621Z,33.40
2019-04-28T21:53:48.398Z,33.10
2019-04-28T21:56:15.102Z,32.90
2019-04-28T21:58:41.922Z,32.90
2019-04-28T22:01:08.653Z,32.60
2019-04-28T22:03:35.440Z,32.70
2019-04-28T22:06:02.205Z,32.90
2019-04-28T22:08:28.921Z,33.10
2019-04-28T22:10:55.644Z,33.40
2019-04-28T22:13:22.415Z,33.50
2019-04-28T22:15:49.150Z,33.50
2019-04-28T22:18:15.882Z,33.50
2019-04-28T22:20:42.688Z,33.50
2019-04-28T22:23:18.223Z,33.00
2019-04-28T22:25:37.837Z,33.30
2019-04-28T22:28:04.616Z,33.30
2019-04-28T22:30:31.432Z,33.00
2019-04-28T22:32:58.160Z,33.20
2019-04-28T22:35:24.969Z,33.00
2019-04-28T22:37:51.781Z,33.30
2019-04-28T22:40:18.734Z,33.20
2019-04-28T22:42:45.686Z,33.10
2019-04-28T22:45:12.427Z,32.90
2019-04-28T22:47:39.163Z,32.80
2019-04-28T22:50:07.272Z,32.80
2019-04-28T22:52:34.086Z,33.50
2019-04-28T22:55:00.812Z,32.70
2019-04-28T22:57:27.599Z,32.60
2019-04-28T22:59:54.335Z,32.70
2019-04-28T23:02:21.251Z,33.00
2019-04-28T23:04:47.985Z,32.80
2019-04-28T23:07:14.712Z,32.80
2019-04-28T23:09:41.451Z,33.20
2019-04-28T23:12:08.242Z,32.90
2019-04-28T23:14:34.965Z,33.20
2019-04-28T23:17:01.686Z,33.10
2019-04-28T23:19:28.462Z,32.70
2019-04-28T23:21:55.184Z,32.60
2019-04-28T23:24:21.904Z,32.50
2019-04-28T23:26:48.697Z,32.30
2019-04-28T23:29:15.428Z,32.40
2019-04-28T23:31:42.156Z,32.40
2019-04-28T23:34:09.077Z,32.20
2019-04-28T23:36:35.803Z,32.50
2019-04-28T23:39:02.526Z,32.60
2019-04-28T23:41:29.315Z,32.60
2019-04-28T23:43:56.048Z,32.30
2019-04-28T23:46:22.783Z,32.90
2019-04-28T23:48:49.574Z,32.80
2019-04-28T23:51:16.291Z,32.80
2019-04-28T23:53:43.010Z,32.70
2019-04-28T23:56:09.808Z,32.70
2019-04-28T23:58:36.542Z,32.70
